Terminal Aerodrome Forecast
Issued by NWS Brownsville, TX

Home | Current Version | Previous Version | Text Only | Print | Product List | Glossary On
Versions: 1 2 3 4 5 6 7 8 9 10 11 12 13 14 15 16 17 18 19 20
379
FTUS44 KBRO 110540
TAFBRO
TAF
KBRO 110540Z 1106/1206 32003KT P6SM SCT008 BKN030 BKN045
      TEMPO 1106/1109 BKN008
     FM110900 18005KT 5SM BR BKN015
      TEMPO 1109/1112 3SM BR BKN008
     FM111500 18014G20KT P6SM OVC025
     FM112000 17017G23KT P6SM BKN050
     FM120000 16008KT P6SM SCT050=

USA.gov is the U.S. government's official web portal to all federal, state and local government web resources and services.